sensor_id;sensor_type;location;lat;lon;timestamp;P1;durP1;ratioP1;P2;durP2;ratioP2
56770;SDS011;42641;59.794;17.616;2023-03-14T00:02:13;2.67;;;1.60;;
56770;SDS011;42641;59.794;17.616;2023-03-14T00:04:40;5.20;;;1.90;;
56770;SDS011;42641;59.794;17.616;2023-03-14T00:07:06;4.07;;;1.73;;
56770;SDS011;42641;59.794;17.616;2023-03-14T00:09:33;2.10;;;1.50;;
56770;SDS011;42641;59.794;17.616;2023-03-14T00:11:59;4.93;;;1.90;;
56770;SDS011;42641;59.794;17.616;2023-03-14T00:14:26;4.50;;;1.90;;
56770;SDS011;42641;59.794;17.616;2023-03-14T00:16:52;2.87;;;1.60;;
56770;SDS011;42641;59.794;17.616;2023-03-14T00:19:18;3.93;;;1.40;;
56770;SDS011;42641;59.794;17.616;2023-03-14T00:21:45;3.00;;;1.50;;
56770;SDS011;42641;59.794;17.616;2023-03-14T00:24:12;5.47;;;1.80;;
56770;SDS011;42641;59.794;17.616;2023-03-14T00:26:39;5.73;;;1.67;;
56770;SDS011;42641;59.794;17.616;2023-03-14T00:29:05;2.37;;;1.60;;
56770;SDS011;42641;59.794;17.616;2023-03-14T00:31:32;4.73;;;1.40;;
56770;SDS011;42641;59.794;17.616;2023-03-14T00:33:59;1.73;;;1.40;;
56770;SDS011;42641;59.794;17.616;2023-03-14T00:36:26;2.40;;;1.30;;
56770;SDS011;42641;59.794;17.616;2023-03-14T00:38:53;3.80;;;1.60;;
56770;SDS011;42641;59.794;17.616;2023-03-14T00:41:21;3.13;;;1.47;;
56770;SDS011;42641;59.794;17.616;2023-03-14T00:43:49;2.33;;;1.40;;
56770;SDS011;42641;59.794;17.616;2023-03-14T00:46:16;4.33;;;1.60;;
56770;SDS011;42641;59.794;17.616;2023-03-14T00:48:46;4.40;;;1.50;;
56770;SDS011;42641;59.794;17.616;2023-03-14T00:51:13;1.93;;;1.10;;
56770;SDS011;42641;59.794;17.616;2023-03-14T00:53:43;2.77;;;1.30;;
56770;SDS011;42641;59.794;17.616;2023-03-14T00:56:10;3.67;;;1.23;;
56770;SDS011;42641;59.794;17.616;2023-03-14T00:58:38;1.53;;;1.20;;
56770;SDS011;42641;59.794;17.616;2023-03-14T01:01:08;2.00;;;1.07;;
56770;SDS011;42641;59.794;17.616;2023-03-14T01:03:38;7.23;;;1.50;;
56770;SDS011;42641;59.794;17.616;2023-03-14T01:06:15;1.50;;;1.20;;
56770;SDS011;42641;59.794;17.616;2023-03-14T01:08:43;1.00;;;1.00;;
56770;SDS011;42641;59.794;17.616;2023-03-14T01:11:12;2.33;;;1.13;;
56770;SDS011;42641;59.794;17.616;2023-03-14T01:13:41;2.33;;;1.10;;
56770;SDS011;42641;59.794;17.616;2023-03-14T01:16:09;1.80;;;1.13;;
56770;SDS011;42641;59.794;17.616;2023-03-14T01:18:37;3.40;;;1.00;;
56770;SDS011;42641;59.794;17.616;2023-03-14T01:21:09;2.13;;;1.30;;
56770;SDS011;42641;59.794;17.616;2023-03-14T01:23:37;1.07;;;0.90;;
56770;SDS011;42641;59.794;17.616;2023-03-14T01:26:04;1.47;;;0.80;;
56770;SDS011;42641;59.794;17.616;2023-03-14T01:28:33;3.00;;;0.90;;
56770;SDS011;42641;59.794;17.616;2023-03-14T01:31:07;1.43;;;0.90;;
56770;SDS011;42641;59.794;17.616;2023-03-14T01:33:35;2.63;;;0.90;;
56770;SDS011;42641;59.794;17.616;2023-03-14T01:36:02;2.17;;;1.10;;
56770;SDS011;42641;59.794;17.616;2023-03-14T01:38:30;2.03;;;1.00;;
56770;SDS011;42641;59.794;17.616;2023-03-14T01:41:00;1.27;;;1.00;;
56770;SDS011;42641;59.794;17.616;2023-03-14T01:43:28;2.50;;;0.93;;
56770;SDS011;42641;59.794;17.616;2023-03-14T01:48:33;2.23;;;1.07;;
56770;SDS011;42641;59.794;17.616;2023-03-14T01:51:03;1.23;;;1.00;;
56770;SDS011;42641;59.794;17.616;2023-03-14T01:53:33;1.63;;;0.73;;
56770;SDS011;42641;59.794;17.616;2023-03-14T01:56:01;0.80;;;0.80;;
56770;SDS011;42641;59.794;17.616;2023-03-14T01:58:29;2.37;;;0.90;;
56770;SDS011;42641;59.794;17.616;2023-03-14T02:01:00;1.50;;;0.87;;
56770;SDS011;42641;59.794;17.616;2023-03-14T02:03:28;1.37;;;0.90;;
56770;SDS011;42641;59.794;17.616;2023-03-14T02:05:57;2.00;;;0.80;;
56770;SDS011;42641;59.794;17.616;2023-03-14T02:08:29;3.63;;;1.23;;
56770;SDS011;42641;59.794;17.616;2023-03-14T02:11:00;3.03;;;1.10;;
56770;SDS011;42641;59.794;17.616;2023-03-14T02:13:42;0.83;;;0.83;;
56770;SDS011;42641;59.794;17.616;2023-03-14T02:16:30;2.47;;;0.93;;
56770;SDS011;42641;59.794;17.616;2023-03-14T02:19:24;1.70;;;1.00;;
56770;SDS011;42641;59.794;17.616;2023-03-14T02:22:28;3.40;;;1.00;;
56770;SDS011;42641;59.794;17.616;2023-03-14T02:27:34;2.30;;;1.10;;
56770;SDS011;42641;59.794;17.616;2023-03-14T02:32:36;0.80;;;0.63;;
56770;SDS011;42641;59.794;17.616;2023-03-14T02:35:09;2.30;;;1.20;;
56770;SDS011;42641;59.794;17.616;2023-03-14T02:37:42;2.20;;;1.10;;
56770;SDS011;42641;59.794;17.616;2023-03-14T02:40:10;1.03;;;0.90;;
56770;SDS011;42641;59.794;17.616;2023-03-14T02:42:38;4.10;;;1.10;;
56770;SDS011;42641;59.794;17.616;2023-03-14T02:47:36;3.70;;;1.20;;
56770;SDS011;42641;59.794;17.616;2023-03-14T02:50:15;3.23;;;1.17;;
56770;SDS011;42641;59.794;17.616;2023-03-14T02:52:48;5.17;;;1.07;;
56770;SDS011;42641;59.794;17.616;2023-03-14T02:55:15;3.00;;;1.10;;
56770;SDS011;42641;59.794;17.616;2023-03-14T02:57:52;4.47;;;1.33;;
56770;SDS011;42641;59.794;17.616;2023-03-14T03:00:19;1.40;;;1.00;;
56770;SDS011;42641;59.794;17.616;2023-03-14T03:02:46;2.63;;;1.13;;
56770;SDS011;42641;59.794;17.616;2023-03-14T03:05:14;2.13;;;0.80;;
56770;SDS011;42641;59.794;17.616;2023-03-14T03:07:40;3.27;;;1.40;;
56770;SDS011;42641;59.794;17.616;2023-03-14T03:10:07;2.03;;;0.90;;
56770;SDS011;42641;59.794;17.616;2023-03-14T03:12:34;2.70;;;1.10;;
56770;SDS011;42641;59.794;17.616;2023-03-14T03:15:00;2.37;;;0.97;;
56770;SDS011;42641;59.794;17.616;2023-03-14T03:17:27;2.93;;;1.10;;
56770;SDS011;42641;59.794;17.616;2023-03-14T03:19:53;1.20;;;0.73;;
56770;SDS011;42641;59.794;17.616;2023-03-14T03:22:20;2.73;;;1.00;;
56770;SDS011;42641;59.794;17.616;2023-03-14T03:24:46;3.13;;;0.93;;
56770;SDS011;42641;59.794;17.616;2023-03-14T03:27:12;4.50;;;1.40;;
56770;SDS011;42641;59.794;17.616;2023-03-14T03:29:39;3.00;;;1.00;;
56770;SDS011;42641;59.794;17.616;2023-03-14T03:32:05;2.27;;;0.70;;
56770;SDS011;42641;59.794;17.616;2023-03-14T03:34:31;1.67;;;0.70;;
56770;SDS011;42641;59.794;17.616;2023-03-14T03:36:58;2.40;;;0.90;;
56770;SDS011;42641;59.794;17.616;2023-03-14T03:39:26;1.20;;;0.80;;
56770;SDS011;42641;59.794;17.616;2023-03-14T03:41:53;2.43;;;1.13;;
56770;SDS011;42641;59.794;17.616;2023-03-14T03:44:20;2.50;;;1.17;;
56770;SDS011;42641;59.794;17.616;2023-03-14T03:46:46;2.77;;;0.93;;
56770;SDS011;42641;59.794;17.616;2023-03-14T03:49:13;2.63;;;1.10;;
56770;SDS011;42641;59.794;17.616;2023-03-14T03:51:39;2.57;;;1.10;;
56770;SDS011;42641;59.794;17.616;2023-03-14T03:54:06;5.17;;;1.00;;
56770;SDS011;42641;59.794;17.616;2023-03-14T03:56:33;3.87;;;1.40;;
56770;SDS011;42641;59.794;17.616;2023-03-14T03:58:59;5.10;;;1.60;;
56770;SDS011;42641;59.794;17.616;2023-03-14T04:01:26;7.37;;;1.60;;
56770;SDS011;42641;59.794;17.616;2023-03-14T04:03:55;5.13;;;1.63;;
56770;SDS011;42641;59.794;17.616;2023-03-14T04:06:21;6.47;;;2.10;;
56770;SDS011;42641;59.794;17.616;2023-03-14T04:08:49;7.80;;;2.10;;
56770;SDS011;42641;59.794;17.616;2023-03-14T04:11:36;7.50;;;1.80;;
56770;SDS011;42641;59.794;17.616;2023-03-14T04:14:31;4.40;;;2.13;;
56770;SDS011;42641;59.794;17.616;2023-03-14T04:17:09;4.37;;;1.73;;
56770;SDS011;42641;59.794;17.616;2023-03-14T04:19:36;4.73;;;1.63;;
56770;SDS011;42641;59.794;17.616;2023-03-14T04:22:03;6.43;;;1.80;;
56770;SDS011;42641;59.794;17.616;2023-03-14T04:24:35;4.70;;;1.40;;
56770;SDS011;42641;59.794;17.616;2023-03-14T04:27:02;5.40;;;1.50;;
56770;SDS011;42641;59.794;17.616;2023-03-14T04:29:28;2.50;;;1.10;;
56770;SDS011;42641;59.794;17.616;2023-03-14T04:31:55;4.17;;;1.57;;
56770;SDS011;42641;59.794;17.616;2023-03-14T04:34:21;9.13;;;2.23;;
56770;SDS011;42641;59.794;17.616;2023-03-14T04:36:51;9.10;;;2.00;;
56770;SDS011;42641;59.794;17.616;2023-03-14T04:39:23;6.43;;;2.03;;
56770;SDS011;42641;59.794;17.616;2023-03-14T04:42:02;5.60;;;1.70;;
56770;SDS011;42641;59.794;17.616;2023-03-14T04:44:29;5.57;;;1.50;;
56770;SDS011;42641;59.794;17.616;2023-03-14T04:46:56;3.27;;;1.70;;
56770;SDS011;42641;59.794;17.616;2023-03-14T04:49:24;4.47;;;1.53;;
56770;SDS011;42641;59.794;17.616;2023-03-14T04:51:50;2.60;;;1.23;;
56770;SDS011;42641;59.794;17.616;2023-03-14T04:54:17;4.10;;;1.20;;
56770;SDS011;42641;59.794;17.616;2023-03-14T04:56:44;3.33;;;1.47;;
56770;SDS011;42641;59.794;17.616;2023-03-14T04:59:10;3.97;;;1.73;;
56770;SDS011;42641;59.794;17.616;2023-03-14T05:01:39;3.10;;;1.47;;
56770;SDS011;42641;59.794;17.616;2023-03-14T05:04:21;2.50;;;1.00;;
56770;SDS011;42641;59.794;17.616;2023-03-14T05:07:08;2.90;;;1.47;;
56770;SDS011;42641;59.794;17.616;2023-03-14T05:10:07;2.73;;;1.20;;
56770;SDS011;42641;59.794;17.616;2023-03-14T05:12:47;4.97;;;1.10;;
56770;SDS011;42641;59.794;17.616;2023-03-14T05:15:31;3.57;;;1.10;;
56770;SDS011;42641;59.794;17.616;2023-03-14T05:18:18;1.67;;;0.80;;
56770;SDS011;42641;59.794;17.616;2023-03-14T05:21:03;2.60;;;1.00;;
56770;SDS011;42641;59.794;17.616;2023-03-14T05:24:02;2.63;;;1.17;;
56770;SDS011;42641;59.794;17.616;2023-03-14T05:26:47;3.17;;;1.10;;
56770;SDS011;42641;59.794;17.616;2023-03-14T05:29:26;1.20;;;0.80;;
56770;SDS011;42641;59.794;17.616;2023-03-14T05:32:18;3.90;;;1.00;;
56770;SDS011;42641;59.794;17.616;2023-03-14T05:35:01;5.20;;;1.20;;
56770;SDS011;42641;59.794;17.616;2023-03-14T05:37:48;3.17;;;1.03;;
56770;SDS011;42641;59.794;17.616;2023-03-14T05:40:24;3.40;;;0.83;;
56770;SDS011;42641;59.794;17.616;2023-03-14T05:43:26;0.73;;;0.67;;
56770;SDS011;42641;59.794;17.616;2023-03-14T05:46:06;0.80;;;0.80;;
56770;SDS011;42641;59.794;17.616;2023-03-14T05:48:46;1.20;;;0.73;;
56770;SDS011;42641;59.794;17.616;2023-03-14T05:51:31;2.47;;;0.70;;
56770;SDS011;42641;59.794;17.616;2023-03-14T05:54:06;0.50;;;0.50;;
56770;SDS011;42641;59.794;17.616;2023-03-14T05:56:50;1.73;;;0.90;;
56770;SDS011;42641;59.794;17.616;2023-03-14T05:59:30;1.80;;;0.90;;
56770;SDS011;42641;59.794;17.616;2023-03-14T06:02:26;2.53;;;0.90;;
56770;SDS011;42641;59.794;17.616;2023-03-14T06:05:01;1.73;;;0.80;;
56770;SDS011;42641;59.794;17.616;2023-03-14T06:07:28;2.63;;;0.70;;
56770;SDS011;42641;59.794;17.616;2023-03-14T06:09:54;0.83;;;0.50;;
56770;SDS011;42641;59.794;17.616;2023-03-14T06:12:21;1.30;;;0.80;;
56770;SDS011;42641;59.794;17.616;2023-03-14T06:17:45;0.67;;;0.63;;
56770;SDS011;42641;59.794;17.616;2023-03-14T06:23:15;0.70;;;0.70;;
56770;SDS011;42641;59.794;17.616;2023-03-14T06:25:42;1.47;;;0.70;;
56770;SDS011;42641;59.794;17.616;2023-03-14T06:28:08;1.37;;;0.57;;
56770;SDS011;42641;59.794;17.616;2023-03-14T06:30:35;0.53;;;0.43;;
56770;SDS011;42641;59.794;17.616;2023-03-14T06:33:02;1.27;;;0.90;;
56770;SDS011;42641;59.794;17.616;2023-03-14T06:35:29;1.70;;;0.80;;
56770;SDS011;42641;59.794;17.616;2023-03-14T06:37:55;1.30;;;0.63;;
56770;SDS011;42641;59.794;17.616;2023-03-14T06:40:21;1.10;;;0.77;;
56770;SDS011;42641;59.794;17.616;2023-03-14T06:43:20;0.60;;;0.60;;
56770;SDS011;42641;59.794;17.616;2023-03-14T06:48:45;0.70;;;0.70;;
56770;SDS011;42641;59.794;17.616;2023-03-14T06:51:13;1.27;;;0.73;;
56770;SDS011;42641;59.794;17.616;2023-03-14T06:53:39;0.40;;;0.40;;
56770;SDS011;42641;59.794;17.616;2023-03-14T07:01:54;0.60;;;0.60;;
56770;SDS011;42641;59.794;17.616;2023-03-14T16:08:00;1.73;;;1.60;;
56770;SDS011;42641;59.794;17.616;2023-03-14T16:10:27;2.33;;;1.90;;
56770;SDS011;42641;59.794;17.616;2023-03-14T16:12:53;1.60;;;1.40;;
56770;SDS011;42641;59.794;17.616;2023-03-14T16:15:20;2.97;;;1.67;;
56770;SDS011;42641;59.794;17.616;2023-03-14T16:17:46;2.03;;;1.70;;
56770;SDS011;42641;59.794;17.616;2023-03-14T16:20:12;1.60;;;1.50;;
56770;SDS011;42641;59.794;17.616;2023-03-14T16:22:39;1.73;;;1.63;;
56770;SDS011;42641;59.794;17.616;2023-03-14T16:25:06;5.50;;;1.50;;
56770;SDS011;42641;59.794;17.616;2023-03-14T16:27:33;2.50;;;1.90;;
56770;SDS011;42641;59.794;17.616;2023-03-14T16:29:59;3.47;;;1.60;;
56770;SDS011;42641;59.794;17.616;2023-03-14T16:32:26;1.60;;;1.50;;
56770;SDS011;42641;59.794;17.616;2023-03-14T16:34:53;1.80;;;1.60;;
56770;SDS011;42641;59.794;17.616;2023-03-14T16:37:19;1.50;;;1.40;;
56770;SDS011;42641;59.794;17.616;2023-03-14T16:39:48;2.77;;;1.47;;
56770;SDS011;42641;59.794;17.616;2023-03-14T16:42:15;1.23;;;1.20;;
56770;SDS011;42641;59.794;17.616;2023-03-14T16:44:42;2.83;;;1.77;;
56770;SDS011;42641;59.794;17.616;2023-03-14T16:47:08;1.77;;;1.50;;
56770;SDS011;42641;59.794;17.616;2023-03-14T16:49:35;1.97;;;1.77;;
56770;SDS011;42641;59.794;17.616;2023-03-14T16:52:01;1.60;;;1.50;;
56770;SDS011;42641;59.794;17.616;2023-03-14T16:54:28;1.97;;;1.70;;
56770;SDS011;42641;59.794;17.616;2023-03-14T16:56:54;2.43;;;1.87;;
56770;SDS011;42641;59.794;17.616;2023-03-14T16:59:21;2.37;;;1.70;;
56770;SDS011;42641;59.794;17.616;2023-03-14T17:01:47;1.93;;;1.70;;
56770;SDS011;42641;59.794;17.616;2023-03-14T17:04:14;2.63;;;1.80;;
56770;SDS011;42641;59.794;17.616;2023-03-14T17:06:41;3.23;;;1.90;;
56770;SDS011;42641;59.794;17.616;2023-03-14T17:09:10;1.90;;;1.80;;
56770;SDS011;42641;59.794;17.616;2023-03-14T17:11:36;1.90;;;1.80;;
56770;SDS011;42641;59.794;17.616;2023-03-14T17:14:03;1.60;;;1.50;;
56770;SDS011;42641;59.794;17.616;2023-03-14T17:16:30;1.60;;;1.50;;
56770;SDS011;42641;59.794;17.616;2023-03-14T17:18:57;2.23;;;1.60;;
56770;SDS011;42641;59.794;17.616;2023-03-14T17:21:23;1.70;;;1.60;;
56770;SDS011;42641;59.794;17.616;2023-03-14T17:23:50;2.67;;;1.70;;
56770;SDS011;42641;59.794;17.616;2023-03-14T17:26:16;4.80;;;1.50;;
56770;SDS011;42641;59.794;17.616;2023-03-14T17:28:44;1.60;;;1.50;;
56770;SDS011;42641;59.794;17.616;2023-03-14T17:31:17;1.50;;;1.40;;
56770;SDS011;42641;59.794;17.616;2023-03-14T17:33:45;1.60;;;1.50;;
56770;SDS011;42641;59.794;17.616;2023-03-14T17:36:12;1.70;;;1.60;;
56770;SDS011;42641;59.794;17.616;2023-03-14T17:38:39;2.10;;;1.90;;
56770;SDS011;42641;59.794;17.616;2023-03-14T17:41:07;2.30;;;2.10;;
56770;SDS011;42641;59.794;17.616;2023-03-14T17:43:37;2.33;;;1.97;;
56770;SDS011;42641;59.794;17.616;2023-03-14T17:46:07;3.13;;;1.80;;
56770;SDS011;42641;59.794;17.616;2023-03-14T17:48:40;2.30;;;2.00;;
56770;SDS011;42641;59.794;17.616;2023-03-14T17:51:07;2.67;;;2.00;;
56770;SDS011;42641;59.794;17.616;2023-03-14T17:53:34;2.27;;;1.83;;
56770;SDS011;42641;59.794;17.616;2023-03-14T17:56:00;2.53;;;2.33;;
56770;SDS011;42641;59.794;17.616;2023-03-14T17:58:29;2.70;;;2.20;;
56770;SDS011;42641;59.794;17.616;2023-03-14T18:00:57;3.83;;;2.50;;
56770;SDS011;42641;59.794;17.616;2023-03-14T18:03:33;3.60;;;2.80;;
56770;SDS011;42641;59.794;17.616;2023-03-14T18:06:02;5.50;;;3.20;;
56770;SDS011;42641;59.794;17.616;2023-03-14T18:08:30;3.70;;;2.93;;
56770;SDS011;42641;59.794;17.616;2023-03-14T18:10:56;3.13;;;2.83;;
56770;SDS011;42641;59.794;17.616;2023-03-14T18:13:23;2.40;;;2.20;;
56770;SDS011;42641;59.794;17.616;2023-03-14T18:15:49;2.57;;;2.37;;
56770;SDS011;42641;59.794;17.616;2023-03-14T18:18:17;2.93;;;2.63;;
56770;SDS011;42641;59.794;17.616;2023-03-14T18:20:48;2.50;;;2.30;;
56770;SDS011;42641;59.794;17.616;2023-03-14T18:23:15;2.73;;;2.50;;
56770;SDS011;42641;59.794;17.616;2023-03-14T18:25:42;3.60;;;2.40;;
56770;SDS011;42641;59.794;17.616;2023-03-14T18:28:08;3.73;;;2.20;;
56770;SDS011;42641;59.794;17.616;2023-03-14T18:30:36;4.20;;;2.60;;
56770;SDS011;42641;59.794;17.616;2023-03-14T18:33:02;3.93;;;2.00;;
56770;SDS011;42641;59.794;17.616;2023-03-14T18:35:29;3.37;;;2.00;;
56770;SDS011;42641;59.794;17.616;2023-03-14T18:37:56;2.60;;;1.93;;
56770;SDS011;42641;59.794;17.616;2023-03-14T18:40:22;1.80;;;1.70;;
56770;SDS011;42641;59.794;17.616;2023-03-14T18:42:48;2.63;;;2.30;;
56770;SDS011;42641;59.794;17.616;2023-03-14T18:45:15;4.30;;;2.13;;
56770;SDS011;42641;59.794;17.616;2023-03-14T18:47:42;2.27;;;1.80;;
56770;SDS011;42641;59.794;17.616;2023-03-14T18:50:08;1.83;;;1.70;;
56770;SDS011;42641;59.794;17.616;2023-03-14T18:52:35;2.27;;;1.90;;
56770;SDS011;42641;59.794;17.616;2023-03-14T18:55:02;3.10;;;1.90;;
56770;SDS011;42641;59.794;17.616;2023-03-14T18:57:29;2.30;;;1.90;;
56770;SDS011;42641;59.794;17.616;2023-03-14T18:59:55;1.63;;;1.53;;
56770;SDS011;42641;59.794;17.616;2023-03-14T19:02:23;2.10;;;1.90;;
56770;SDS011;42641;59.794;17.616;2023-03-14T19:04:50;2.67;;;1.63;;
56770;SDS011;42641;59.794;17.616;2023-03-14T19:07:18;2.43;;;1.60;;
56770;SDS011;42641;59.794;17.616;2023-03-14T19:09:44;1.60;;;1.50;;
56770;SDS011;42641;59.794;17.616;2023-03-14T19:12:11;1.60;;;1.50;;
56770;SDS011;42641;59.794;17.616;2023-03-14T19:14:37;2.87;;;2.00;;
56770;SDS011;42641;59.794;17.616;2023-03-14T19:17:04;3.10;;;1.87;;
56770;SDS011;42641;59.794;17.616;2023-03-14T19:19:30;1.83;;;1.67;;
56770;SDS011;42641;59.794;17.616;2023-03-14T19:21:57;1.87;;;1.60;;
56770;SDS011;42641;59.794;17.616;2023-03-14T19:24:24;1.80;;;1.70;;
56770;SDS011;42641;59.794;17.616;2023-03-14T19:26:51;2.60;;;1.60;;
56770;SDS011;42641;59.794;17.616;2023-03-14T19:29:17;1.90;;;1.70;;
56770;SDS011;42641;59.794;17.616;2023-03-14T19:31:43;2.10;;;1.77;;
56770;SDS011;42641;59.794;17.616;2023-03-14T19:34:10;3.20;;;2.07;;
56770;SDS011;42641;59.794;17.616;2023-03-14T19:36:36;1.80;;;1.70;;
56770;SDS011;42641;59.794;17.616;2023-03-14T19:39:03;2.10;;;1.70;;
56770;SDS011;42641;59.794;17.616;2023-03-14T19:41:31;2.73;;;1.80;;
56770;SDS011;42641;59.794;17.616;2023-03-14T19:43:58;3.60;;;1.87;;
56770;SDS011;42641;59.794;17.616;2023-03-14T19:46:26;1.90;;;1.80;;
56770;SDS011;42641;59.794;17.616;2023-03-14T19:48:52;2.47;;;2.27;;
56770;SDS011;42641;59.794;17.616;2023-03-14T19:51:19;2.10;;;1.80;;
56770;SDS011;42641;59.794;17.616;2023-03-14T19:53:48;7.47;;;2.63;;
56770;SDS011;42641;59.794;17.616;2023-03-14T19:56:15;2.73;;;2.07;;
56770;SDS011;42641;59.794;17.616;2023-03-14T19:58:44;3.00;;;2.30;;
56770;SDS011;42641;59.794;17.616;2023-03-14T20:01:10;3.63;;;2.67;;
56770;SDS011;42641;59.794;17.616;2023-03-14T20:03:37;5.10;;;3.30;;
56770;SDS011;42641;59.794;17.616;2023-03-14T20:06:04;3.47;;;2.70;;
56770;SDS011;42641;59.794;17.616;2023-03-14T20:08:32;4.03;;;2.80;;
56770;SDS011;42641;59.794;17.616;2023-03-14T20:11:01;5.87;;;3.23;;
56770;SDS011;42641;59.794;17.616;2023-03-14T20:13:29;3.67;;;2.70;;
56770;SDS011;42641;59.794;17.616;2023-03-14T20:15:55;3.03;;;2.30;;
56770;SDS011;42641;59.794;17.616;2023-03-14T20:18:22;3.10;;;2.57;;
56770;SDS011;42641;59.794;17.616;2023-03-14T20:20:48;3.03;;;2.33;;
56770;SDS011;42641;59.794;17.616;2023-03-14T20:23:15;5.60;;;3.10;;
56770;SDS011;42641;59.794;17.616;2023-03-14T20:25:41;3.67;;;2.67;;
56770;SDS011;42641;59.794;17.616;2023-03-14T20:28:09;4.20;;;2.63;;
56770;SDS011;42641;59.794;17.616;2023-03-14T20:30:36;2.50;;;2.27;;
56770;SDS011;42641;59.794;17.616;2023-03-14T20:33:02;3.00;;;2.13;;
56770;SDS011;42641;59.794;17.616;2023-03-14T20:35:29;3.20;;;2.30;;
56770;SDS011;42641;59.794;17.616;2023-03-14T20:37:56;3.20;;;2.70;;
56770;SDS011;42641;59.794;17.616;2023-03-14T20:40:23;3.47;;;2.27;;
56770;SDS011;42641;59.794;17.616;2023-03-14T20:42:53;2.30;;;2.10;;
56770;SDS011;42641;59.794;17.616;2023-03-14T20:45:19;3.33;;;2.17;;
56770;SDS011;42641;59.794;17.616;2023-03-14T20:47:46;2.10;;;1.90;;
56770;SDS011;42641;59.794;17.616;2023-03-14T20:50:12;2.40;;;1.90;;
56770;SDS011;42641;59.794;17.616;2023-03-14T20:52:39;1.47;;;1.37;;
56770;SDS011;42641;59.794;17.616;2023-03-14T20:55:06;1.70;;;1.60;;
56770;SDS011;42641;59.794;17.616;2023-03-14T20:57:33;2.83;;;1.67;;
56770;SDS011;42641;59.794;17.616;2023-03-14T20:59:59;1.70;;;1.60;;
56770;SDS011;42641;59.794;17.616;2023-03-14T21:02:26;1.50;;;1.40;;
56770;SDS011;42641;59.794;17.616;2023-03-14T21:04:55;1.40;;;1.30;;
56770;SDS011;42641;59.794;17.616;2023-03-14T21:07:22;2.43;;;1.57;;
56770;SDS011;42641;59.794;17.616;2023-03-14T21:09:48;1.50;;;1.40;;
56770;SDS011;42641;59.794;17.616;2023-03-14T21:12:15;1.57;;;1.40;;
56770;SDS011;42641;59.794;17.616;2023-03-14T21:14:41;1.83;;;1.27;;
56770;SDS011;42641;59.794;17.616;2023-03-14T21:17:08;1.83;;;1.60;;
56770;SDS011;42641;59.794;17.616;2023-03-14T21:19:34;1.50;;;1.40;;
56770;SDS011;42641;59.794;17.616;2023-03-14T21:22:01;1.80;;;1.57;;
56770;SDS011;42641;59.794;17.616;2023-03-14T21:24:30;1.40;;;1.30;;
56770;SDS011;42641;59.794;17.616;2023-03-14T21:26:58;1.57;;;1.47;;
56770;SDS011;42641;59.794;17.616;2023-03-14T21:29:25;1.80;;;1.60;;
56770;SDS011;42641;59.794;17.616;2023-03-14T21:31:51;1.60;;;1.50;;
56770;SDS011;42641;59.794;17.616;2023-03-14T21:34:18;2.20;;;1.80;;
56770;SDS011;42641;59.794;17.616;2023-03-14T21:36:51;2.53;;;1.87;;
56770;SDS011;42641;59.794;17.616;2023-03-14T21:39:18;3.73;;;1.80;;
56770;SDS011;42641;59.794;17.616;2023-03-14T21:41:45;2.43;;;1.70;;
56770;SDS011;42641;59.794;17.616;2023-03-14T21:44:11;2.17;;;1.80;;
56770;SDS011;42641;59.794;17.616;2023-03-14T21:46:41;3.27;;;1.97;;
56770;SDS011;42641;59.794;17.616;2023-03-14T21:49:14;2.33;;;2.03;;
56770;SDS011;42641;59.794;17.616;2023-03-14T21:51:41;2.10;;;1.70;;
56770;SDS011;42641;59.794;17.616;2023-03-14T21:54:15;2.00;;;1.80;;
56770;SDS011;42641;59.794;17.616;2023-03-14T21:56:41;2.97;;;1.83;;
56770;SDS011;42641;59.794;17.616;2023-03-14T21:59:08;3.23;;;1.70;;
56770;SDS011;42641;59.794;17.616;2023-03-14T22:01:36;2.10;;;1.60;;
56770;SDS011;42641;59.794;17.616;2023-03-14T22:04:03;2.40;;;1.40;;
56770;SDS011;42641;59.794;17.616;2023-03-14T22:06:29;1.60;;;1.50;;
56770;SDS011;42641;59.794;17.616;2023-03-14T22:08:56;1.63;;;1.37;;
56770;SDS011;42641;59.794;17.616;2023-03-14T22:11:23;1.60;;;1.47;;
56770;SDS011;42641;59.794;17.616;2023-03-14T22:13:49;1.90;;;1.40;;
56770;SDS011;42641;59.794;17.616;2023-03-14T22:16:16;1.53;;;1.43;;
56770;SDS011;42641;59.794;17.616;2023-03-14T22:18:42;1.70;;;1.50;;
56770;SDS011;42641;59.794;17.616;2023-03-14T22:21:09;1.60;;;1.30;;
56770;SDS011;42641;59.794;17.616;2023-03-14T22:23:35;1.13;;;1.03;;
56770;SDS011;42641;59.794;17.616;2023-03-14T22:26:02;1.60;;;1.27;;
56770;SDS011;42641;59.794;17.616;2023-03-14T22:28:28;1.33;;;1.23;;
56770;SDS011;42641;59.794;17.616;2023-03-14T22:30:54;1.30;;;1.17;;
56770;SDS011;42641;59.794;17.616;2023-03-14T22:33:21;1.40;;;1.30;;
56770;SDS011;42641;59.794;17.616;2023-03-14T22:35:48;1.50;;;1.20;;
56770;SDS011;42641;59.794;17.616;2023-03-14T22:38:16;1.40;;;1.30;;
56770;SDS011;42641;59.794;17.616;2023-03-14T22:40:43;1.53;;;1.27;;
56770;SDS011;42641;59.794;17.616;2023-03-14T22:43:09;2.03;;;1.10;;
56770;SDS011;42641;59.794;17.616;2023-03-14T22:45:36;1.97;;;1.00;;
56770;SDS011;42641;59.794;17.616;2023-03-14T22:48:02;1.33;;;1.03;;
56770;SDS011;42641;59.794;17.616;2023-03-14T22:50:29;1.50;;;1.00;;
56770;SDS011;42641;59.794;17.616;2023-03-14T22:52:56;1.87;;;1.00;;
56770;SDS011;42641;59.794;17.616;2023-03-14T22:55:23;1.13;;;1.03;;
56770;SDS011;42641;59.794;17.616;2023-03-14T22:57:50;1.30;;;1.10;;
56770;SDS011;42641;59.794;17.616;2023-03-14T23:00:18;1.40;;;1.30;;
56770;SDS011;42641;59.794;17.616;2023-03-14T23:02:44;1.67;;;1.10;;
56770;SDS011;42641;59.794;17.616;2023-03-14T23:05:11;1.00;;;0.87;;
56770;SDS011;42641;59.794;17.616;2023-03-14T23:07:37;2.00;;;1.10;;
56770;SDS011;42641;59.794;17.616;2023-03-14T23:10:04;1.07;;;0.90;;
56770;SDS011;42641;59.794;17.616;2023-03-14T23:12:31;1.03;;;0.93;;
56770;SDS011;42641;59.794;17.616;2023-03-14T23:14:58;1.20;;;1.00;;
56770;SDS011;42641;59.794;17.616;2023-03-14T23:17:24;0.87;;;0.87;;
56770;SDS011;42641;59.794;17.616;2023-03-14T23:19:52;0.97;;;0.93;;
56770;SDS011;42641;59.794;17.616;2023-03-14T23:22:19;1.10;;;1.00;;
56770;SDS011;42641;59.794;17.616;2023-03-14T23:24:45;0.70;;;0.70;;
56770;SDS011;42641;59.794;17.616;2023-03-14T23:27:14;1.40;;;1.03;;
56770;SDS011;42641;59.794;17.616;2023-03-14T23:29:44;1.73;;;1.03;;
56770;SDS011;42641;59.794;17.616;2023-03-14T23:32:11;0.87;;;0.87;;
56770;SDS011;42641;59.794;17.616;2023-03-14T23:34:40;0.70;;;0.70;;
56770;SDS011;42641;59.794;17.616;2023-03-14T23:37:08;1.00;;;0.90;;
56770;SDS011;42641;59.794;17.616;2023-03-14T23:39:44;2.00;;;0.80;;
56770;SDS011;42641;59.794;17.616;2023-03-14T23:42:11;0.83;;;0.83;;
56770;SDS011;42641;59.794;17.616;2023-03-14T23:44:38;1.47;;;0.90;;
56770;SDS011;42641;59.794;17.616;2023-03-14T23:47:04;2.00;;;0.90;;
56770;SDS011;42641;59.794;17.616;2023-03-14T23:49:31;1.30;;;0.83;;
56770;SDS011;42641;59.794;17.616;2023-03-14T23:51:57;1.70;;;1.00;;
56770;SDS011;42641;59.794;17.616;2023-03-14T23:54:24;1.23;;;1.03;;
56770;SDS011;42641;59.794;17.616;2023-03-14T23:56:50;1.20;;;0.90;;
56770;SDS011;42641;59.794;17.616;2023-03-14T23:59:17;2.00;;;0.80;;
